Time;durP1;ratioP1;P1;durP2;ratioP2;P2;SDS_P1;SDS_P2;PMS_P1;PMS_P2;Temp;Humidity;BMP_temperature;BMP_pressure;BME280_temperature;BME280_humidity;BME280_pressure;Samples;Min_cycle;Max_cycle;Signal;HPM_P1;HPM_P2
2023/10/03 00:00:24;;;;;;;22.27;13.73;;;21.10;79.20;;;;;;4964235;28;20200;-71
2023/10/03 00:02:57;;;;;;;23.65;14.13;;;21.10;79.20;;;;;;4993186;28;20195;-71
2023/10/03 00:05:28;;;;;;;23.00;14.00;;;21.10;79.20;;;;;;4977141;28;20189;-70
2023/10/03 00:07:57;;;;;;;20.85;13.32;;;21.10;79.20;;;;;;5001062;28;20204;-70
2023/10/03 00:10:23;;;;;;;23.30;14.02;;;21.10;79.20;;;;;;4993170;28;20213;-70
2023/10/03 00:12:51;;;;;;;20.20;13.13;;;21.10;79.20;;;;;;4977014;28;20181;-70
2023/10/03 00:15:27;;;;;;;21.83;13.77;;;21.10;79.20;;;;;;4990869;28;20192;-70
2023/10/03 00:17:54;;;;;;;22.55;14.13;;;21.10;79.30;;;;;;4979623;28;20232;-70
2023/10/03 00:20:22;;;;;;;23.20;14.77;;;21.10;79.30;;;;;;4960842;28;20275;-70
2023/10/03 00:22:49;;;;;;;21.42;12.95;;;21.10;79.20;;;;;;4976446;28;20205;-70
2023/10/03 00:25:18;;;;;;;21.85;13.43;;;21.10;79.30;;;;;;4976665;28;20240;-70
2023/10/03 00:27:49;;;;;;;22.33;14.23;;;21.10;79.30;;;;;;4978768;28;20727;-70
2023/10/03 00:30:19;;;;;;;20.30;13.75;;;21.10;79.20;;;;;;4962199;28;20785;-70
2023/10/03 00:32:46;;;;;;;21.90;13.38;;;21.10;79.30;;;;;;4978868;28;20185;-70
2023/10/03 00:35:14;;;;;;;21.75;13.95;;;21.10;79.20;;;;;;4996590;28;20621;-70
2023/10/03 00:37:40;;;;;;;21.20;13.40;;;21.10;79.20;;;;;;4997050;28;20262;-70
2023/10/03 00:40:50;;;;;;;19.55;13.00;;;21.10;79.20;;;;;;4977984;28;20203;-70
2023/10/03 00:42:59;;;;;;;19.40;12.65;;;21.10;79.20;;;;;;4986878;28;20255;-70
2023/10/03 00:45:26;;;;;;;19.83;12.93;;;21.10;79.20;;;;;;4978711;28;20184;-70
2023/10/03 00:47:55;;;;;;;21.23;13.63;;;21.10;79.20;;;;;;4992265;28;20216;-70
2023/10/03 00:50:23;;;;;;;20.10;13.40;;;21.10;79.30;;;;;;4989949;28;20268;-70
2023/10/03 00:52:57;;;;;;;21.35;13.27;;;21.10;79.20;;;;;;4962913;28;20223;-72
2023/10/03 00:55:26;;;;;;;18.25;12.05;;;21.10;79.30;;;;;;4996838;28;20181;-70
2023/10/03 00:58:06;;;;;;;20.40;13.20;;;21.10;79.30;;;;;;4992886;28;20243;-70
2023/10/03 01:00:43;;;;;;;20.75;13.00;;;21.10;79.30;;;;;;4996743;28;20183;-71
2023/10/03 01:03:36;;;;;;;20.08;13.60;;;21.10;79.30;;;;;;4990857;28;20197;-71
2023/10/03 01:06:13;;;;;;;18.63;12.45;;;21.10;79.30;;;;;;4989991;28;20688;-70
2023/10/03 01:08:42;;;;;;;19.73;12.85;;;21.10;79.20;;;;;;4978520;28;20219;-70
2023/10/03 01:11:20;;;;;;;19.75;13.35;;;21.10;79.30;;;;;;4996554;28;20203;-70
2023/10/03 01:13:49;;;;;;;19.83;13.07;;;21.10;79.20;;;;;;4991026;28;20188;-70
2023/10/03 01:18:59;;;;;;;19.35;12.15;;;21.10;79.30;;;;;;4990899;28;20260;-70
2023/10/03 01:21:26;;;;;;;20.00;12.27;;;21.10;79.30;;;;;;4975532;28;20183;-70
2023/10/03 01:23:53;;;;;;;21.05;12.93;;;21.10;79.20;;;;;;4993010;28;20176;-70
2023/10/03 01:26:21;;;;;;;19.42;12.48;;;21.00;79.10;;;;;;4977808;28;20176;-70
2023/10/03 01:28:48;;;;;;;19.48;12.57;;;21.10;79.20;;;;;;4988269;28;20222;-70
2023/10/03 01:31:15;;;;;;;18.77;12.18;;;21.10;79.20;;;;;;4990798;28;20245;-70
2023/10/03 01:33:41;;;;;;;20.33;12.32;;;21.10;79.20;;;;;;4975406;28;20267;-70
2023/10/03 01:36:07;;;;;;;17.50;11.88;;;21.00;79.10;;;;;;4977541;28;20264;-70
2023/10/03 01:38:33;;;;;;;18.05;12.18;;;21.00;79.10;;;;;;4961336;28;20228;-71
2023/10/03 01:41:00;;;;;;;17.90;11.68;;;21.00;79.10;;;;;;4995695;28;20204;-70
2023/10/03 01:43:27;;;;;;;19.55;12.52;;;21.00;79.10;;;;;;4962992;28;20185;-70
2023/10/03 01:45:54;;;;;;;16.40;11.95;;;21.00;79.10;;;;;;4993537;28;20177;-70
2023/10/03 01:48:20;;;;;;;17.60;11.60;;;21.00;79.00;;;;;;4976957;28;20255;-70
2023/10/03 01:50:50;;;;;;;18.80;12.20;;;21.00;79.10;;;;;;4988511;28;20182;-70
2023/10/03 01:53:17;;;;;;;18.13;11.05;;;21.00;79.10;;;;;;4978020;28;20191;-70
2023/10/03 01:55:44;;;;;;;18.20;11.80;;;21.00;79.10;;;;;;4997291;28;20180;-71
2023/10/03 01:58:10;;;;;;;19.13;11.93;;;21.00;79.10;;;;;;4992484;28;20240;-70
2023/10/03 02:00:37;;;;;;;18.65;11.75;;;21.00;79.20;;;;;;4959186;28;20185;-70
2023/10/03 02:03:07;;;;;;;18.23;12.30;;;21.00;79.90;;;;;;4991104;28;20193;-70
2023/10/03 02:05:38;;;;;;;17.88;10.93;;;21.00;79.10;;;;;;4999619;28;20199;-70
2023/10/03 02:08:15;;;;;;;18.20;11.90;;;21.00;79.10;;;;;;4974733;28;20271;-70
2023/10/03 02:10:47;;;;;;;18.05;11.63;;;21.00;79.10;;;;;;4974968;28;20181;-70
2023/10/03 02:13:14;;;;;;;19.25;12.07;;;21.00;79.10;;;;;;4978086;28;20181;-70
2023/10/03 02:15:58;;;;;;;17.48;11.35;;;21.00;79.10;;;;;;4976780;28;20235;-72
2023/10/03 02:18:24;;;;;;;17.67;11.65;;;21.00;79.10;;;;;;4990689;28;20201;-70
2023/10/03 02:21:03;;;;;;;19.60;11.55;;;21.00;79.10;;;;;;4974793;28;20191;-70
2023/10/03 02:23:30;;;;;;;16.52;10.95;;;21.00;79.00;;;;;;4978090;28;20191;-71
2023/10/03 02:26:06;;;;;;;16.23;10.38;;;21.00;79.10;;;;;;4993994;28;20258;-70
2023/10/03 02:28:31;;;;;;;16.75;11.02;;;21.00;79.10;;;;;;4981044;28;20222;-71
2023/10/03 02:30:59;;;;;;;16.80;10.80;;;21.00;79.10;;;;;;4992331;28;20271;-70
2023/10/03 02:33:24;;;;;;;17.33;10.57;;;21.00;79.10;;;;;;4993708;28;20191;-70
2023/10/03 02:35:50;;;;;;;17.95;11.20;;;21.00;79.10;;;;;;4998598;28;20236;-71
2023/10/03 02:38:24;;;;;;;17.25;10.73;;;21.00;79.00;;;;;;4991016;28;20213;-71
2023/10/03 02:40:56;;;;;;;17.25;11.57;;;21.00;79.10;;;;;;4974844;28;20192;-71
2023/10/03 02:43:29;;;;;;;15.30;10.05;;;21.00;79.80;;;;;;4987765;28;20263;-70
2023/10/03 02:45:55;;;;;;;17.13;11.30;;;21.00;79.00;;;;;;4991550;28;20726;-70
2023/10/03 02:48:21;;;;;;;15.75;11.10;;;21.00;79.00;;;;;;4989185;28;20206;-70
2023/10/03 02:50:50;;;;;;;15.88;10.48;;;21.00;79.00;;;;;;4972732;28;20182;-70
2023/10/03 02:53:19;;;;;;;16.80;10.73;;;21.00;79.00;;;;;;4959321;28;20185;-70
2023/10/03 02:55:47;;;;;;;17.02;10.20;;;21.00;79.00;;;;;;4974559;28;20185;-71
2023/10/03 02:58:14;;;;;;;16.27;10.43;;;21.00;79.00;;;;;;4988198;28;20276;-70
2023/10/03 03:00:43;;;;;;;17.00;11.63;;;21.00;79.00;;;;;;4968685;28;20204;-70
2023/10/03 03:03:10;;;;;;;16.65;10.43;;;21.00;79.00;;;;;;4990693;28;20185;-70
2023/10/03 03:05:38;;;;;;;16.98;10.50;;;21.00;79.00;;;;;;4990632;28;20642;-70
2023/10/03 03:10:57;;;;;;;16.70;11.05;;;21.00;79.70;;;;;;4995593;28;20260;-70
2023/10/03 03:13:26;;;;;;;15.38;10.27;;;21.00;79.00;;;;;;4995619;28;20195;-70
2023/10/03 03:15:59;;;;;;;16.98;10.73;;;21.00;79.00;;;;;;4977765;28;20209;-70
2023/10/03 03:18:27;;;;;;;16.08;10.57;;;21.00;79.00;;;;;;4993755;28;20205;-70
2023/10/03 03:20:58;;;;;;;16.15;10.27;;;21.00;79.00;;;;;;4991569;28;20181;-70
2023/10/03 03:23:29;;;;;;;15.43;10.20;;;21.00;79.00;;;;;;4976722;28;20194;-70
2023/10/03 03:26:09;;;;;;;15.27;10.23;;;21.00;79.00;;;;;;4978643;28;20220;-70
2023/10/03 03:28:35;;;;;;;14.07;8.77;;;21.00;79.00;;;;;;4978438;28;20619;-70
2023/10/03 03:31:01;;;;;;;15.95;10.00;;;21.00;79.00;;;;;;4991479;28;20188;-70
2023/10/03 03:33:27;;;;;;;15.00;9.93;;;21.00;79.00;;;;;;4993284;28;20188;-70
2023/10/03 03:35:54;;;;;;;15.23;9.88;;;20.90;79.00;;;;;;4995539;28;20243;-70
2023/10/03 03:38:20;;;;;;;15.13;10.52;;;21.00;79.80;;;;;;4993269;28;20205;-70
2023/10/03 03:40:53;;;;;;;14.80;9.85;;;21.00;79.00;;;;;;4998722;28;20207;-70
2023/10/03 03:43:21;;;;;;;13.40;9.73;;;21.00;79.00;;;;;;4979927;28;20192;-70
2023/10/03 03:45:48;;;;;;;14.98;9.80;;;21.00;79.10;;;;;;4994030;28;20174;-70
2023/10/03 03:48:14;;;;;;;16.08;10.63;;;21.00;79.10;;;;;;4994784;28;20239;-70
2023/10/03 03:50:41;;;;;;;14.23;9.63;;;21.00;79.10;;;;;;4977391;28;20204;-70
2023/10/03 03:53:07;;;;;;;14.18;9.02;;;21.00;79.10;;;;;;4961398;28;20199;-70
2023/10/03 03:55:35;;;;;;;16.13;10.00;;;21.00;79.20;;;;;;4993513;28;20192;-70
2023/10/03 03:58:05;;;;;;;14.45;9.63;;;21.00;79.10;;;;;;4993942;28;20208;-70
2023/10/03 04:00:32;;;;;;;14.52;9.45;;;21.00;79.20;;;;;;4977753;28;20634;-70
2023/10/03 04:03:07;;;;;;;16.55;10.68;;;21.00;79.20;;;;;;4993706;28;20188;-71
2023/10/03 04:05:34;;;;;;;14.68;9.60;;;21.00;79.20;;;;;;4993494;28;20223;-70
2023/10/03 04:08:00;;;;;;;16.10;10.10;;;21.00;79.20;;;;;;4993544;28;20221;-70
2023/10/03 04:10:26;;;;;;;13.80;9.40;;;21.00;79.20;;;;;;4992090;28;20311;-70
2023/10/03 04:12:54;;;;;;;14.02;9.45;;;21.00;79.20;;;;;;4994566;28;20181;-70
2023/10/03 04:15:20;;;;;;;14.13;9.80;;;21.00;79.20;;;;;;4976907;28;20204;-70
2023/10/03 04:17:48;;;;;;;13.95;9.65;;;21.00;79.30;;;;;;4992978;28;20211;-70
2023/10/03 04:20:30;;;;;;;14.85;9.32;;;21.00;79.20;;;;;;4976292;28;20192;-71
2023/10/03 04:22:58;;;;;;;14.07;9.25;;;20.90;79.10;;;;;;4971742;28;20225;-70
2023/10/03 04:25:25;;;;;;;16.00;10.18;;;21.00;79.30;;;;;;5010956;28;20211;-70
2023/10/03 04:27:55;;;;;;;14.77;8.85;;;21.00;79.30;;;;;;4982807;28;20209;-70
2023/10/03 04:30:26;;;;;;;12.60;9.23;;;20.90;79.20;;;;;;4984857;28;20216;-70
2023/10/03 04:32:54;;;;;;;14.23;9.30;;;20.90;79.20;;;;;;4998328;28;20180;-70
2023/10/03 04:35:22;;;;;;;13.32;9.25;;;21.00;79.30;;;;;;4994581;28;20195;-70
2023/10/03 04:37:52;;;;;;;13.13;9.30;;;20.90;79.20;;;;;;4983994;28;20219;-70
2023/10/03 04:40:37;;;;;;;15.55;9.80;;;20.90;79.30;;;;;;4984169;28;20208;-70
2023/10/03 04:43:15;;;;;;;13.48;9.18;;;20.90;79.20;;;;;;4983169;28;20198;-70
2023/10/03 04:45:42;;;;;;;13.70;8.98;;;20.90;79.20;;;;;;4993099;28;20220;-71
2023/10/03 04:48:11;;;;;;;13.40;8.70;;;20.90;79.20;;;;;;4993554;28;20220;-70
2023/10/03 04:50:39;;;;;;;11.73;8.18;;;20.90;79.20;;;;;;4995428;28;20195;-70
2023/10/03 04:53:14;;;;;;;13.13;8.73;;;20.90;79.20;;;;;;4998229;28;20177;-70
2023/10/03 04:55:44;;;;;;;12.93;9.02;;;21.00;79.30;;;;;;5003635;28;20180;-70
2023/10/03 04:58:10;;;;;;;13.20;9.05;;;20.90;79.30;;;;;;4987627;28;20208;-70
2023/10/03 05:00:36;;;;;;;13.55;9.57;;;20.90;79.30;;;;;;4975958;28;20229;-70
2023/10/03 05:03:04;;;;;;;13.68;8.93;;;20.90;79.20;;;;;;4982189;28;20218;-70
2023/10/03 05:05:30;;;;;;;13.45;9.20;;;20.90;79.30;;;;;;4995067;28;20193;-70
2023/10/03 05:07:56;;;;;;;13.07;9.30;;;20.90;79.30;;;;;;4989180;28;20358;-70
2023/10/03 05:10:24;;;;;;;12.85;9.07;;;20.90;79.30;;;;;;5000097;28;20284;-70
2023/10/03 05:12:51;;;;;;;14.23;9.15;;;20.90;79.30;;;;;;4982444;28;20189;-70
2023/10/03 05:15:18;;;;;;;13.07;9.60;;;21.00;79.30;;;;;;4992017;28;20179;-70
2023/10/03 05:17:48;;;;;;;12.35;8.35;;;20.90;79.20;;;;;;4979317;28;20215;-70
2023/10/03 05:20:20;;;;;;;12.23;8.73;;;20.90;79.20;;;;;;4970172;28;20235;-70
2023/10/03 05:22:46;;;;;;;14.23;9.32;;;20.90;79.20;;;;;;4996034;28;20226;-70
2023/10/03 05:25:18;;;;;;;13.70;9.40;;;20.90;79.20;;;;;;4986790;28;20192;-70
2023/10/03 05:27:51;;;;;;;13.45;9.30;;;20.90;79.20;;;;;;4991949;28;20209;-70
2023/10/03 05:30:16;;;;;;;13.23;8.95;;;20.90;79.20;;;;;;4960468;28;20209;-70
2023/10/03 05:32:43;;;;;;;12.23;9.02;;;20.90;79.20;;;;;;4961788;28;20187;-70
2023/10/03 05:35:09;;;;;;;12.70;8.82;;;20.90;79.20;;;;;;4979542;28;20185;-70
2023/10/03 05:37:35;;;;;;;13.20;8.90;;;20.90;79.20;;;;;;4993274;28;20291;-70
2023/10/03 05:40:15;;;;;;;12.32;8.73;;;20.90;79.30;;;;;;4985951;28;20196;-70
2023/10/03 05:42:47;;;;;;;12.63;8.68;;;20.90;79.30;;;;;;4975064;28;20263;-70
2023/10/03 05:45:13;;;;;;;12.10;8.43;;;20.90;79.30;;;;;;4982708;28;20227;-70
2023/10/03 05:47:47;;;;;;;13.80;9.00;;;20.90;79.30;;;;;;4981031;28;20209;-70
2023/10/03 05:50:22;;;;;;;12.70;8.43;;;20.90;79.30;;;;;;4975175;28;20225;-70
2023/10/03 05:52:48;;;;;;;11.30;8.38;;;20.90;79.30;;;;;;4965772;28;20187;-70
2023/10/03 05:55:14;;;;;;;11.98;8.55;;;20.90;79.30;;;;;;4998509;28;20188;-72
2023/10/03 05:57:42;;;;;;;11.13;8.27;;;20.90;79.20;;;;;;5000465;28;20216;-70
2023/10/03 06:00:17;;;;;;;11.65;7.97;;;20.90;79.20;;;;;;4992133;28;20183;-70
2023/10/03 06:02:50;;;;;;;12.02;8.23;;;20.90;80.00;;;;;;4991764;28;20199;-70
2023/10/03 06:05:16;;;;;;;12.73;8.93;;;20.90;79.20;;;;;;4991204;28;20181;-70
2023/10/03 06:07:43;;;;;;;11.88;8.63;;;20.80;79.10;;;;;;4990053;28;20218;-70
2023/10/03 06:10:15;;;;;;;11.25;8.00;;;20.90;79.30;;;;;;4992368;28;20224;-70
2023/10/03 06:12:41;;;;;;;11.77;8.05;;;20.90;79.30;;;;;;4990342;28;20276;-70
2023/10/03 06:15:08;;;;;;;12.20;8.45;;;20.90;79.30;;;;;;4981564;28;20185;-70
2023/10/03 06:17:35;;;;;;;12.15;8.18;;;20.90;79.30;;;;;;4990645;28;20192;-70
2023/10/03 06:20:01;;;;;;;10.75;8.02;;;20.90;79.40;;;;;;4980026;28;20220;-70
2023/10/03 06:22:27;;;;;;;11.45;7.95;;;20.90;79.40;;;;;;4967020;28;20192;-70
2023/10/03 06:24:57;;;;;;;11.57;8.65;;;20.90;79.40;;;;;;5003317;28;20184;-70
2023/10/03 06:27:23;;;;;;;12.38;8.27;;;20.90;79.40;;;;;;4999434;28;20193;-70
2023/10/03 06:29:49;;;;;;;11.20;8.10;;;20.90;79.40;;;;;;5003314;28;20217;-70
2023/10/03 06:32:15;;;;;;;11.98;7.35;;;20.90;79.40;;;;;;4974991;28;20203;-71
2023/10/03 06:34:40;;;;;;;14.20;8.73;;;20.90;79.40;;;;;;4964644;28;20189;-70
2023/10/03 06:37:06;;;;;;;11.60;8.23;;;20.90;79.40;;;;;;4980646;28;20193;-71
2023/10/03 06:39:32;;;;;;;12.70;8.93;;;20.90;79.40;;;;;;4980837;28;20215;-71
2023/10/03 06:41:58;;;;;;;12.38;8.10;;;20.90;79.40;;;;;;4989989;28;20690;-71
2023/10/03 06:44:24;;;;;;;11.60;8.38;;;20.90;79.40;;;;;;5002879;28;20269;-70
2023/10/03 06:46:50;;;;;;;11.75;8.13;;;20.90;79.40;;;;;;4994921;28;20184;-71
2023/10/03 06:49:17;;;;;;;10.60;8.27;;;20.90;79.50;;;;;;4994453;28;20231;-70
2023/10/03 06:51:45;;;;;;;12.85;8.68;;;20.80;79.40;;;;;;5001127;28;20189;-70
2023/10/03 06:54:11;;;;;;;11.52;8.18;;;20.90;79.50;;;;;;4984571;28;20184;-70
2023/10/03 06:56:36;;;;;;;11.60;8.18;;;20.80;79.40;;;;;;4968268;28;20284;-70
2023/10/03 06:59:08;;;;;;;10.98;7.72;;;20.90;79.50;;;;;;4984366;28;20223;-70
2023/10/03 07:01:35;;;;;;;11.45;8.32;;;20.90;79.60;;;;;;4984289;28;20193;-70
2023/10/03 07:04:02;;;;;;;11.75;7.70;;;20.90;79.60;;;;;;4982796;28;20603;-70
2023/10/03 07:06:28;;;;;;;12.38;8.40;;;20.90;79.60;;;;;;5001771;28;20196;-70
2023/10/03 07:08:55;;;;;;;12.27;8.15;;;20.90;79.60;;;;;;5000495;28;20214;-70
2023/10/03 07:11:21;;;;;;;11.95;7.50;;;20.80;79.60;;;;;;5006031;28;20247;-70
2023/10/03 07:13:49;;;;;;;11.40;8.02;;;20.90;79.70;;;;;;5002288;28;20196;-70
2023/10/03 07:16:16;;;;;;;11.15;7.80;;;20.90;79.80;;;;;;4989885;28;20210;-70
2023/10/03 07:18:43;;;;;;;9.90;7.55;;;20.90;79.80;;;;;;4970522;28;20249;-70
2023/10/03 07:21:09;;;;;;;11.02;7.78;;;20.90;79.80;;;;;;5011597;28;20192;-70
2023/10/03 07:23:36;;;;;;;10.70;7.63;;;20.90;79.80;;;;;;4987322;28;20195;-70
2023/10/03 07:26:01;;;;;;;9.90;7.63;;;20.90;79.80;;;;;;5004464;28;20199;-70
2023/10/03 07:28:27;;;;;;;10.60;7.45;;;20.90;79.80;;;;;;4987026;28;20216;-70
2023/10/03 07:30:53;;;;;;;9.68;7.55;;;20.90;80.10;;;;;;4993928;28;20189;-70
2023/10/03 07:33:22;;;;;;;12.40;7.95;;;20.80;79.70;;;;;;4983657;28;20191;-70
2023/10/03 07:35:48;;;;;;;10.50;7.55;;;20.90;79.80;;;;;;5005116;28;20247;-70
2023/10/03 07:38:14;;;;;;;10.82;7.55;;;20.90;79.80;;;;;;5001629;28;20216;-70
2023/10/03 07:40:43;;;;;;;11.35;8.07;;;20.90;79.80;;;;;;4994689;28;20227;-70
2023/10/03 07:43:09;;;;;;;11.98;8.15;;;20.90;79.80;;;;;;4998892;28;20193;-70
2023/10/03 07:45:42;;;;;;;11.88;7.90;;;20.90;79.80;;;;;;5000469;28;20240;-70
2023/10/03 07:48:10;;;;;;;11.05;7.35;;;20.90;79.80;;;;;;5004149;28;20208;-70
2023/10/03 07:50:40;;;;;;;9.98;7.20;;;20.90;79.80;;;;;;4977691;28;20197;-70
2023/10/03 07:53:11;;;;;;;9.80;7.00;;;20.90;79.80;;;;;;4996263;28;20235;-70
2023/10/03 07:55:39;;;;;;;10.10;7.30;;;20.90;79.90;;;;;;4976716;28;20275;-70
2023/10/03 07:58:05;;;;;;;10.98;7.78;;;20.90;79.80;;;;;;4984516;28;20221;-70
2023/10/03 08:00:32;;;;;;;9.90;7.30;;;20.90;80.00;;;;;;4977381;28;20216;-70
2023/10/03 08:02:58;;;;;;;10.15;7.47;;;21.00;80.00;;;;;;4996725;28;20195;-70
2023/10/03 08:05:27;;;;;;;11.02;7.57;;;20.90;80.00;;;;;;4984408;28;20712;-70
2023/10/03 08:07:55;;;;;;;11.30;7.78;;;21.00;80.10;;;;;;4993198;28;20209;-70
2023/10/03 08:10:22;;;;;;;10.15;7.63;;;21.00;79.90;;;;;;4982182;28;20219;-70
2023/10/03 08:12:52;;;;;;;9.63;7.32;;;21.00;79.90;;;;;;4996896;28;20269;-70
2023/10/03 08:15:20;;;;;;;10.43;7.45;;;21.00;80.70;;;;;;4973672;28;20187;-70
2023/10/03 08:17:53;;;;;;;10.68;7.13;;;21.10;80.00;;;;;;4981556;28;20209;-70
2023/10/03 08:20:20;;;;;;;9.75;7.32;;;21.10;80.00;;;;;;4976957;28;20265;-70
2023/10/03 08:22:53;;;;;;;10.93;7.53;;;21.10;80.00;;;;;;4978124;28;20196;-70
2023/10/03 08:25:21;;;;;;;9.82;7.00;;;21.10;80.00;;;;;;4963483;28;20187;-70
2023/10/03 08:27:50;;;;;;;11.48;7.47;;;21.10;80.00;;;;;;4997399;28;20222;-70
2023/10/03 08:30:28;;;;;;;14.05;7.47;;;21.10;80.00;;;;;;4968597;28;20295;-70
2023/10/03 08:33:05;;;;;;;12.93;7.55;;;21.10;79.90;;;;;;4994279;28;20181;-70
2023/10/03 08:35:34;;;;;;;10.52;7.15;;;21.10;80.00;;;;;;4982788;28;20714;-71
2023/10/03 08:38:10;;;;;;;9.02;6.95;;;21.10;80.00;;;;;;4997462;28;20215;-70
2023/10/03 08:40:41;;;;;;;10.88;7.53;;;21.10;80.80;;;;;;4993968;28;20207;-70
2023/10/03 08:43:11;;;;;;;9.05;6.55;;;21.10;80.00;;;;;;4981382;28;20189;-71
2023/10/03 08:45:52;;;;;;;10.52;7.82;;;21.10;80.00;;;;;;4968183;28;20243;-70
2023/10/03 08:48:27;;;;;;;9.20;7.05;;;21.10;79.90;;;;;;4994783;28;20216;-70
2023/10/03 08:50:58;;;;;;;10.02;7.38;;;21.10;80.00;;;;;;4991161;28;20260;-70
2023/10/03 08:53:27;;;;;;;9.30;6.72;;;21.20;80.00;;;;;;4998996;28;20239;-70
2023/10/03 08:56:05;;;;;;;10.68;7.50;;;21.20;80.00;;;;;;4991513;28;20178;-70
2023/10/03 08:58:31;;;;;;;10.48;7.18;;;21.20;80.00;;;;;;4980652;28;20214;-70
2023/10/03 09:01:04;;;;;;;9.45;7.05;;;21.20;80.10;;;;;;4998520;28;20198;-70
2023/10/03 09:03:47;;;;;;;9.05;7.00;;;21.20;80.10;;;;;;4977258;28;20185;-71
2023/10/03 09:06:23;;;;;;;10.05;6.90;;;21.20;80.10;;;;;;4995808;28;20185;-70
2023/10/03 09:09:08;;;;;;;10.70;7.40;;;21.20;80.10;;;;;;4989876;28;20240;-70
2023/10/03 09:11:37;;;;;;;10.52;6.97;;;21.20;80.10;;;;;;4976052;28;20219;-71
2023/10/03 09:14:12;;;;;;;9.80;6.63;;;21.20;80.10;;;;;;4975064;28;20287;-70
2023/10/03 09:16:41;;;;;;;9.77;6.80;;;21.20;80.10;;;;;;4981239;28;20731;-72
2023/10/03 09:19:23;;;;;;;9.70;7.57;;;21.20;80.10;;;;;;4979874;28;20228;-71
2023/10/03 09:21:51;;;;;;;8.02;6.30;;;21.20;80.20;;;;;;4975623;28;20268;-70
2023/10/03 09:24:21;;;;;;;9.95;6.88;;;21.20;80.10;;;;;;4991887;28;20188;-70
2023/10/03 09:27:07;;;;;;;9.13;6.50;;;21.20;80.10;;;;;;4976322;28;20208;-70
2023/10/03 09:29:33;;;;;;;10.63;6.82;;;21.20;80.10;;;;;;4992328;28;20227;-70
2023/10/03 09:32:20;;;;;;;8.95;6.72;;;21.20;80.20;;;;;;4993289;28;20355;-70
2023/10/03 09:35:00;;;;;;;7.72;6.45;;;21.20;80.10;;;;;;4976693;28;20177;-70
2023/10/03 09:37:30;;;;;;;8.32;6.50;;;21.20;80.30;;;;;;4995515;28;20246;-70
2023/10/03 09:40:01;;;;;;;9.13;6.90;;;21.20;80.30;;;;;;4977194;28;20239;-71
2023/10/03 09:42:31;;;;;;;9.43;6.82;;;21.20;80.30;;;;;;5005740;28;20188;-70
2023/10/03 09:44:58;;;;;;;8.88;6.43;;;21.20;80.40;;;;;;4991639;28;20197;-71
2023/10/03 09:47:30;;;;;;;9.68;7.13;;;21.20;80.30;;;;;;4995288;28;20188;-71
2023/10/03 09:50:06;;;;;;;10.63;7.10;;;21.20;80.30;;;;;;4989795;28;20255;-70
2023/10/03 09:52:33;;;;;;;9.13;6.50;;;21.20;80.40;;;;;;4991495;28;20191;-70
2023/10/03 09:55:17;;;;;;;8.60;5.95;;;21.20;80.30;;;;;;5002415;28;20649;-70
2023/10/03 09:57:49;;;;;;;8.80;6.72;;;21.20;80.30;;;;;;4984730;28;20201;-70
2023/10/03 10:00:38;;;;;;;8.80;6.40;;;21.20;80.40;;;;;;4983199;28;20192;-70
2023/10/03 10:03:19;;;;;;;9.23;6.90;;;21.20;80.30;;;;;;4991212;28;20228;-70
2023/10/03 10:06:19;;;;;;;8.65;6.20;;;21.20;80.40;;;;;;4988004;28;20675;-70
2023/10/03 10:09:13;;;;;;;8.52;5.90;;;21.20;80.40;;;;;;4988012;28;20225;-70
2023/10/03 10:12:14;;;;;;;8.80;6.20;;;21.20;80.40;;;;;;4995009;28;20192;-70
2023/10/03 10:15:00;;;;;;;7.78;5.85;;;21.20;80.50;;;;;;4991430;28;20216;-70
2023/10/03 10:17:51;;;;;;;9.57;6.68;;;21.20;80.50;;;;;;4979917;28;20184;-70
2023/10/03 10:20:32;;;;;;;8.70;6.35;;;21.20;80.60;;;;;;4998723;28;20184;-72
2023/10/03 10:23:02;;;;;;;8.75;6.35;;;21.30;80.50;;;;;;4993712;28;20263;-70
2023/10/03 10:25:42;;;;;;;8.38;6.30;;;21.30;80.70;;;;;;4992758;28;20336;-70
2023/10/03 10:28:11;;;;;;;8.80;6.55;;;21.30;80.70;;;;;;4990732;28;20223;-72
2023/10/03 10:30:44;;;;;;;7.60;5.78;;;21.30;80.60;;;;;;4994427;28;20208;-70
2023/10/03 10:33:16;;;;;;;11.45;6.45;;;21.30;80.60;;;;;;4994077;28;20180;-70
2023/10/03 10:36:09;;;;;;;8.82;6.43;;;21.30;80.60;;;;;;4999375;28;20216;-71
2023/10/03 10:38:34;;;;;;;8.63;6.30;;;21.30;80.50;;;;;;4989585;28;20577;-70
2023/10/03 10:41:22;;;;;;;9.50;6.85;;;21.30;80.70;;;;;;4990928;28;20257;-70
2023/10/03 10:44:13;;;;;;;6.90;5.95;;;21.30;80.70;;;;;;4984095;28;20724;-70
2023/10/03 10:46:45;;;;;;;8.13;6.35;;;21.30;80.80;;;;;;4993028;28;20186;-70
2023/10/03 10:49:37;;;;;;;8.20;6.15;;;21.30;80.70;;;;;;4981626;28;20311;-70
2023/10/03 10:52:10;;;;;;;6.63;5.32;;;21.30;80.70;;;;;;4989462;28;20190;-70
2023/10/03 10:54:42;;;;;;;7.55;5.93;;;21.30;81.50;;;;;;4979760;28;20200;-70
2023/10/03 10:57:11;;;;;;;7.97;6.07;;;21.40;80.80;;;;;;4996242;28;20277;-70
2023/10/03 10:59:40;;;;;;;7.68;5.38;;;21.30;80.60;;;;;;4991852;28;20213;-70
2023/10/03 11:02:26;;;;;;;8.63;6.20;;;21.30;80.70;;;;;;4992499;28;20221;-70
2023/10/03 11:05:01;;;;;;;8.00;6.20;;;21.30;80.70;;;;;;4999193;28;20556;-71
2023/10/03 11:07:29;;;;;;;7.80;6.10;;;21.40;80.80;;;;;;4958260;28;20193;-70
2023/10/03 11:10:04;;;;;;;7.35;5.47;;;21.30;80.80;;;;;;4991053;28;20211;-74
2023/10/03 11:12:30;;;;;;;8.43;5.90;;;21.40;80.90;;;;;;4974570;28;20180;-70
2023/10/03 11:14:57;;;;;;;6.57;5.38;;;21.40;80.90;;;;;;4974079;28;20188;-70
2023/10/03 11:17:25;;;;;;;7.72;5.85;;;21.30;80.80;;;;;;4978091;28;20208;-71
2023/10/03 11:19:55;;;;;;;7.18;5.53;;;21.40;80.90;;;;;;4980851;28;20201;-70
2023/10/03 11:22:22;;;;;;;7.00;5.80;;;21.30;80.80;;;;;;4980668;28;20244;-70
2023/10/03 11:24:48;;;;;;;7.25;5.47;;;21.30;80.80;;;;;;4993279;28;20189;-70
2023/10/03 11:27:31;;;;;;;8.68;6.07;;;21.30;80.80;;;;;;4992805;28;20180;-72
2023/10/03 11:29:57;;;;;;;8.02;5.95;;;21.40;81.00;;;;;;4996360;28;20228;-70
2023/10/03 11:32:29;;;;;;;8.20;6.32;;;21.40;81.00;;;;;;4978014;28;20212;-70
2023/10/03 11:34:57;;;;;;;8.15;5.95;;;21.40;80.90;;;;;;4994263;28;20181;-70
2023/10/03 11:37:44;;;;;;;7.97;6.05;;;21.40;80.90;;;;;;4979864;28;20181;-70
2023/10/03 11:40:15;;;;;;;7.90;6.15;;;21.40;80.90;;;;;;4993762;28;20560;-70
2023/10/03 11:43:04;;;;;;;6.72;5.50;;;21.40;80.90;;;;;;4972531;28;20185;-70
2023/10/03 11:45:32;;;;;;;8.45;5.90;;;21.40;80.90;;;;;;4994139;28;20244;-70
2023/10/03 11:48:17;;;;;;;7.35;5.55;;;21.40;80.90;;;;;;4980722;28;20294;-70
2023/10/03 11:50:45;;;;;;;6.32;5.13;;;21.40;80.90;;;;;;4966510;28;20228;-70
2023/10/03 11:53:13;;;;;;;7.60;5.25;;;21.40;80.90;;;;;;4993712;28;20200;-71
2023/10/03 11:55:40;;;;;;;6.47;5.20;;;21.40;80.90;;;;;;4996152;28;20188;-71
2023/10/03 11:58:10;;;;;;;6.68;5.57;;;21.40;81.00;;;;;;4994492;28;20224;-70
2023/10/03 12:00:37;;;;;;;5.97;5.15;;;21.40;81.00;;;;;;4993412;28;20196;-70
2023/10/03 12:03:04;;;;;;;6.50;5.22;;;21.40;81.00;;;;;;4996885;28;20248;-70
2023/10/03 12:05:30;;;;;;;6.45;5.20;;;21.40;81.00;;;;;;4964844;28;20188;-70
2023/10/03 12:07:58;;;;;;;5.55;4.93;;;21.40;81.00;;;;;;4979545;28;20307;-70
2023/10/03 12:10:26;;;;;;;6.22;5.00;;;21.40;81.10;;;;;;4997836;28;20219;-70
2023/10/03 12:12:52;;;;;;;6.32;5.07;;;21.40;81.00;;;;;;4992147;28;20233;-70
2023/10/03 12:15:18;;;;;;;6.18;5.03;;;21.40;81.00;;;;;;4995407;28;20200;-71
2023/10/03 12:17:46;;;;;;;5.93;5.03;;;21.50;81.20;;;;;;4978769;28;20591;-71
2023/10/03 12:20:14;;;;;;;6.25;5.38;;;21.40;81.00;;;;;;4993992;28;20269;-70
2023/10/03 12:22:47;;;;;;;6.95;5.03;;;21.50;81.00;;;;;;4975728;28;20196;-70
2023/10/03 12:25:15;;;;;;;6.95;5.20;;;21.50;81.00;;;;;;4995142;28;20628;-70
2023/10/03 12:27:43;;;;;;;6.88;5.47;;;21.50;81.00;;;;;;4970829;28;20212;-70
2023/10/03 12:30:15;;;;;;;6.97;4.95;;;21.50;81.00;;;;;;4994761;28;20217;-70
2023/10/03 12:32:45;;;;;;;5.57;4.97;;;21.50;81.10;;;;;;4970893;28;20216;-71
2023/10/03 12:35:11;;;;;;;7.18;5.30;;;21.50;81.00;;;;;;4994200;28;20197;-70
2023/10/03 12:37:40;;;;;;;6.25;5.03;;;21.40;81.00;;;;;;4992861;28;20704;-70
2023/10/03 12:40:18;;;;;;;6.10;4.93;;;21.50;81.20;;;;;;4992660;28;20196;-71
2023/10/03 12:42:51;;;;;;;7.85;5.07;;;21.50;81.20;;;;;;4992451;28;20177;-70
2023/10/03 12:45:22;;;;;;;7.38;5.35;;;21.50;81.20;;;;;;5000445;28;20719;-70
2023/10/03 12:47:53;;;;;;;6.38;4.80;;;21.50;81.30;;;;;;4992599;28;20215;-70
2023/10/03 12:50:27;;;;;;;5.72;4.88;;;21.40;81.10;;;;;;4994678;28;20210;-71
2023/10/03 12:53:01;;;;;;;5.57;4.63;;;21.50;81.20;;;;;;4994545;28;20278;-70
2023/10/03 12:55:29;;;;;;;6.00;4.78;;;21.50;81.20;;;;;;4979920;28;20184;-71
2023/10/03 12:57:58;;;;;;;6.22;4.82;;;21.50;81.10;;;;;;4989117;28;20221;-71
2023/10/03 13:00:25;;;;;;;6.65;5.40;;;21.50;81.10;;;;;;4977615;28;20207;-70